<?xml version="1.0" encoding="UTF-8" standalone="no" ?>
<gpx xmlns="http://www.topografix.com/GPX/1/1" xmlns:xsi="http://www.w3.org/2001/XMLSchema-instance" xsi:schemaLocation="http://www.topografix.com/GPX/1/1 http://www.topografix.com/GPX/1/1/gpx.xsd" version="1.1" creator="VisuGPX - https://www.visugpx.com">
  <metadata>
    <name>16 Adainville</name>
  </metadata>
  <trk>
    <name><![CDATA[16 Adainville 21 Km-22038221]]></name>
    <extensions>
      <line xmlns="http://www.topografix.com/GPX/gpx_style/0/2">
        <color>0000FF</color>
        <width>4</width>
      </line>
    </extensions>
    <trkseg>
      <trkpt lat="48.72217" lon="1.65451">
        <ele>132</ele>
        <time>2026-04-22T13:05:53Z</time>
      </trkpt>
      <trkpt lat="48.72203" lon="1.65368">
        <ele>133</ele>
        <time>2026-04-22T13:07:08Z</time>
      </trkpt>
      <trkpt lat="48.72247" lon="1.65305">
        <ele>134</ele>
        <time>2026-04-22T13:08:29Z</time>
      </trkpt>
      <trkpt lat="48.72253" lon="1.65301">
        <ele>134</ele>
        <time>2026-04-22T13:08:38Z</time>
      </trkpt>
      <trkpt lat="48.72243" lon="1.65285">
        <ele>135</ele>
        <time>2026-04-22T13:08:57Z</time>
      </trkpt>
      <trkpt lat="48.72226" lon="1.65262">
        <ele>136</ele>
        <time>2026-04-22T13:09:28Z</time>
      </trkpt>
      <trkpt lat="48.72216" lon="1.65252">
        <ele>136</ele>
        <time>2026-04-22T13:09:44Z</time>
      </trkpt>
      <trkpt lat="48.72198" lon="1.65241">
        <ele>137</ele>
        <time>2026-04-22T13:10:10Z</time>
      </trkpt>
      <trkpt lat="48.72199" lon="1.65236">
        <ele>136</ele>
        <time>2026-04-22T13:10:14Z</time>
      </trkpt>
      <trkpt lat="48.72195" lon="1.6514">
        <ele>135</ele>
        <time>2026-04-22T13:11:39Z</time>
      </trkpt>
      <trkpt lat="48.7219" lon="1.6506">
        <ele>133</ele>
        <time>2026-04-22T13:12:50Z</time>
      </trkpt>
      <trkpt lat="48.72188" lon="1.64988">
        <ele>132</ele>
        <time>2026-04-22T13:13:53Z</time>
      </trkpt>
      <trkpt lat="48.72183" lon="1.64952">
        <ele>133</ele>
        <time>2026-04-22T13:14:25Z</time>
      </trkpt>
      <trkpt lat="48.72172" lon="1.64906">
        <ele>134</ele>
        <time>2026-04-22T13:15:09Z</time>
      </trkpt>
      <trkpt lat="48.72146" lon="1.64861">
        <ele>137</ele>
        <time>2026-04-22T13:16:01Z</time>
      </trkpt>
      <trkpt lat="48.72112" lon="1.64802">
        <ele>136</ele>
        <time>2026-04-22T13:17:10Z</time>
      </trkpt>
      <trkpt lat="48.72098" lon="1.64767">
        <ele>133</ele>
        <time>2026-04-22T13:17:46Z</time>
      </trkpt>
      <trkpt lat="48.72092" lon="1.64749">
        <ele>132</ele>
        <time>2026-04-22T13:18:04Z</time>
      </trkpt>
      <trkpt lat="48.72087" lon="1.64678">
        <ele>133</ele>
        <time>2026-04-22T13:19:07Z</time>
      </trkpt>
      <trkpt lat="48.72075" lon="1.64482">
        <ele>134</ele>
        <time>2026-04-22T13:22:00Z</time>
      </trkpt>
      <trkpt lat="48.72069" lon="1.64394">
        <ele>135</ele>
        <time>2026-04-22T13:23:18Z</time>
      </trkpt>
      <trkpt lat="48.72071" lon="1.64338">
        <ele>134</ele>
        <time>2026-04-22T13:24:07Z</time>
      </trkpt>
      <trkpt lat="48.72073" lon="1.64305">
        <ele>134</ele>
        <time>2026-04-22T13:24:37Z</time>
      </trkpt>
      <trkpt lat="48.72072" lon="1.64299">
        <ele>134</ele>
        <time>2026-04-22T13:24:42Z</time>
      </trkpt>
      <trkpt lat="48.72069" lon="1.64285">
        <ele>134</ele>
        <time>2026-04-22T13:24:55Z</time>
      </trkpt>
      <trkpt lat="48.72118" lon="1.64312">
        <ele>135</ele>
        <time>2026-04-22T13:26:05Z</time>
      </trkpt>
      <trkpt lat="48.72133" lon="1.64297">
        <ele>135</ele>
        <time>2026-04-22T13:26:29Z</time>
      </trkpt>
      <trkpt lat="48.72192" lon="1.64155">
        <ele>138</ele>
        <time>2026-04-22T13:28:56Z</time>
      </trkpt>
      <trkpt lat="48.72241" lon="1.63995">
        <ele>140</ele>
        <time>2026-04-22T13:31:32Z</time>
      </trkpt>
      <trkpt lat="48.72251" lon="1.63866">
        <ele>137</ele>
        <time>2026-04-22T13:33:26Z</time>
      </trkpt>
      <trkpt lat="48.72262" lon="1.63796">
        <ele>137</ele>
        <time>2026-04-22T13:34:29Z</time>
      </trkpt>
      <trkpt lat="48.72273" lon="1.63738">
        <ele>138</ele>
        <time>2026-04-22T13:35:22Z</time>
      </trkpt>
      <trkpt lat="48.72283" lon="1.63708">
        <ele>139</ele>
        <time>2026-04-22T13:35:52Z</time>
      </trkpt>
      <trkpt lat="48.723" lon="1.63665">
        <ele>140</ele>
        <time>2026-04-22T13:36:36Z</time>
      </trkpt>
      <trkpt lat="48.72335" lon="1.63593">
        <ele>143</ele>
        <time>2026-04-22T13:37:55Z</time>
      </trkpt>
      <trkpt lat="48.72361" lon="1.63553">
        <ele>144</ele>
        <time>2026-04-22T13:38:44Z</time>
      </trkpt>
      <trkpt lat="48.72412" lon="1.63493">
        <ele>150</ele>
        <time>2026-04-22T13:40:10Z</time>
      </trkpt>
      <trkpt lat="48.72453" lon="1.6345">
        <ele>151</ele>
        <time>2026-04-22T13:41:17Z</time>
      </trkpt>
      <trkpt lat="48.72458" lon="1.63442">
        <ele>151</ele>
        <time>2026-04-22T13:41:27Z</time>
      </trkpt>
      <trkpt lat="48.72486" lon="1.63399">
        <ele>151</ele>
        <time>2026-04-22T13:42:20Z</time>
      </trkpt>
      <trkpt lat="48.72524" lon="1.63324">
        <ele>148</ele>
        <time>2026-04-22T13:43:43Z</time>
      </trkpt>
      <trkpt lat="48.72599" lon="1.63068">
        <ele>150</ele>
        <time>2026-04-22T13:47:50Z</time>
      </trkpt>
      <trkpt lat="48.72531" lon="1.63015">
        <ele>151</ele>
        <time>2026-04-22T13:49:32Z</time>
      </trkpt>
      <trkpt lat="48.72481" lon="1.62952">
        <ele>154</ele>
        <time>2026-04-22T13:50:59Z</time>
      </trkpt>
      <trkpt lat="48.72453" lon="1.62908">
        <ele>156</ele>
        <time>2026-04-22T13:51:52Z</time>
      </trkpt>
      <trkpt lat="48.72406" lon="1.62808">
        <ele>159</ele>
        <time>2026-04-22T13:53:40Z</time>
      </trkpt>
      <trkpt lat="48.72333" lon="1.6285">
        <ele>158</ele>
        <time>2026-04-22T13:55:25Z</time>
      </trkpt>
      <trkpt lat="48.72146" lon="1.62985">
        <ele>159</ele>
        <time>2026-04-22T14:00:01Z</time>
      </trkpt>
      <trkpt lat="48.7207" lon="1.63035">
        <ele>163</ele>
        <time>2026-04-22T14:01:52Z</time>
      </trkpt>
      <trkpt lat="48.71888" lon="1.63121">
        <ele>180</ele>
        <time>2026-04-22T14:06:06Z</time>
      </trkpt>
      <trkpt lat="48.71783" lon="1.63201">
        <ele>185</ele>
        <time>2026-04-22T14:08:43Z</time>
      </trkpt>
      <trkpt lat="48.71532" lon="1.63258">
        <ele>186</ele>
        <time>2026-04-22T14:14:21Z</time>
      </trkpt>
      <trkpt lat="48.71475" lon="1.63296">
        <ele>186</ele>
        <time>2026-04-22T14:15:45Z</time>
      </trkpt>
      <trkpt lat="48.71404" lon="1.63363">
        <ele>185</ele>
        <time>2026-04-22T14:17:36Z</time>
      </trkpt>
      <trkpt lat="48.71287" lon="1.6306">
        <ele>187</ele>
        <time>2026-04-22T14:22:45Z</time>
      </trkpt>
      <trkpt lat="48.71151" lon="1.62851">
        <ele>182</ele>
        <time>2026-04-22T14:27:04Z</time>
      </trkpt>
      <trkpt lat="48.71088" lon="1.62695">
        <ele>177</ele>
        <time>2026-04-22T14:29:45Z</time>
      </trkpt>
      <trkpt lat="48.7092" lon="1.62477">
        <ele>175</ele>
        <time>2026-04-22T14:34:40Z</time>
      </trkpt>
      <trkpt lat="48.7082" lon="1.62362">
        <ele>177</ele>
        <time>2026-04-22T14:37:28Z</time>
      </trkpt>
      <trkpt lat="48.70792" lon="1.62327">
        <ele>177</ele>
        <time>2026-04-22T14:38:16Z</time>
      </trkpt>
      <trkpt lat="48.7078" lon="1.62269">
        <ele>177</ele>
        <time>2026-04-22T14:39:09Z</time>
      </trkpt>
      <trkpt lat="48.70751" lon="1.62256">
        <ele>177</ele>
        <time>2026-04-22T14:39:50Z</time>
      </trkpt>
      <trkpt lat="48.70711" lon="1.62246">
        <ele>177</ele>
        <time>2026-04-22T14:40:44Z</time>
      </trkpt>
      <trkpt lat="48.70624" lon="1.62146">
        <ele>175</ele>
        <time>2026-04-22T14:43:10Z</time>
      </trkpt>
      <trkpt lat="48.70618" lon="1.62116">
        <ele>176</ele>
        <time>2026-04-22T14:43:37Z</time>
      </trkpt>
      <trkpt lat="48.706" lon="1.62085">
        <ele>176</ele>
        <time>2026-04-22T14:44:14Z</time>
      </trkpt>
      <trkpt lat="48.70556" lon="1.62045">
        <ele>175</ele>
        <time>2026-04-22T14:45:22Z</time>
      </trkpt>
      <trkpt lat="48.70494" lon="1.6198">
        <ele>172</ele>
        <time>2026-04-22T14:47:03Z</time>
      </trkpt>
      <trkpt lat="48.70455" lon="1.61975">
        <ele>169</ele>
        <time>2026-04-22T14:47:55Z</time>
      </trkpt>
      <trkpt lat="48.70445" lon="1.61949">
        <ele>169</ele>
        <time>2026-04-22T14:48:21Z</time>
      </trkpt>
      <trkpt lat="48.70441" lon="1.61919">
        <ele>170</ele>
        <time>2026-04-22T14:48:48Z</time>
      </trkpt>
      <trkpt lat="48.7044" lon="1.61862">
        <ele>171</ele>
        <time>2026-04-22T14:49:39Z</time>
      </trkpt>
      <trkpt lat="48.70448" lon="1.61844">
        <ele>172</ele>
        <time>2026-04-22T14:49:58Z</time>
      </trkpt>
      <trkpt lat="48.70405" lon="1.61789">
        <ele>170</ele>
        <time>2026-04-22T14:51:13Z</time>
      </trkpt>
      <trkpt lat="48.70373" lon="1.61811">
        <ele>167</ele>
        <time>2026-04-22T14:52:00Z</time>
      </trkpt>
      <trkpt lat="48.7031" lon="1.61753">
        <ele>164</ele>
        <time>2026-04-22T14:53:38Z</time>
      </trkpt>
      <trkpt lat="48.70257" lon="1.61716">
        <ele>162</ele>
        <time>2026-04-22T14:54:56Z</time>
      </trkpt>
      <trkpt lat="48.70255" lon="1.61715">
        <ele>162</ele>
        <time>2026-04-22T14:54:59Z</time>
      </trkpt>
      <trkpt lat="48.70243" lon="1.61809">
        <ele>160</ele>
        <time>2026-04-22T14:56:23Z</time>
      </trkpt>
      <trkpt lat="48.70233" lon="1.61863">
        <ele>158</ele>
        <time>2026-04-22T14:57:12Z</time>
      </trkpt>
      <trkpt lat="48.7022" lon="1.61928">
        <ele>155</ele>
        <time>2026-04-22T14:58:12Z</time>
      </trkpt>
      <trkpt lat="48.70217" lon="1.61945">
        <ele>155</ele>
        <time>2026-04-22T14:58:28Z</time>
      </trkpt>
      <trkpt lat="48.70229" lon="1.62053">
        <ele>154</ele>
        <time>2026-04-22T15:00:04Z</time>
      </trkpt>
      <trkpt lat="48.70271" lon="1.62072">
        <ele>156</ele>
        <time>2026-04-22T15:01:03Z</time>
      </trkpt>
      <trkpt lat="48.70295" lon="1.62104">
        <ele>156</ele>
        <time>2026-04-22T15:01:45Z</time>
      </trkpt>
      <trkpt lat="48.70342" lon="1.62162">
        <ele>157</ele>
        <time>2026-04-22T15:03:06Z</time>
      </trkpt>
      <trkpt lat="48.70405" lon="1.62201">
        <ele>160</ele>
        <time>2026-04-22T15:04:37Z</time>
      </trkpt>
      <trkpt lat="48.7046" lon="1.62249">
        <ele>164</ele>
        <time>2026-04-22T15:06:02Z</time>
      </trkpt>
      <trkpt lat="48.70454" lon="1.62379">
        <ele>166</ele>
        <time>2026-04-22T15:07:57Z</time>
      </trkpt>
      <trkpt lat="48.70453" lon="1.62385">
        <ele>166</ele>
        <time>2026-04-22T15:08:02Z</time>
      </trkpt>
      <trkpt lat="48.70434" lon="1.62471">
        <ele>165</ele>
        <time>2026-04-22T15:09:22Z</time>
      </trkpt>
      <trkpt lat="48.70398" lon="1.62601">
        <ele>168</ele>
        <time>2026-04-22T15:11:26Z</time>
      </trkpt>
      <trkpt lat="48.70358" lon="1.62666">
        <ele>171</ele>
        <time>2026-04-22T15:12:44Z</time>
      </trkpt>
      <trkpt lat="48.70238" lon="1.62921">
        <ele>166</ele>
        <time>2026-04-22T15:17:20Z</time>
      </trkpt>
      <trkpt lat="48.7011" lon="1.63111">
        <ele>154</ele>
        <time>2026-04-22T15:21:19Z</time>
      </trkpt>
      <trkpt lat="48.7007" lon="1.63259">
        <ele>158</ele>
        <time>2026-04-22T15:23:40Z</time>
      </trkpt>
      <trkpt lat="48.69988" lon="1.63521">
        <ele>176</ele>
        <time>2026-04-22T15:27:55Z</time>
      </trkpt>
      <trkpt lat="48.69999" lon="1.63649">
        <ele>181</ele>
        <time>2026-04-22T15:29:49Z</time>
      </trkpt>
      <trkpt lat="48.7001" lon="1.63697">
        <ele>179</ele>
        <time>2026-04-22T15:30:34Z</time>
      </trkpt>
      <trkpt lat="48.70034" lon="1.63732">
        <ele>176</ele>
        <time>2026-04-22T15:31:18Z</time>
      </trkpt>
      <trkpt lat="48.70031" lon="1.63771">
        <ele>175</ele>
        <time>2026-04-22T15:31:53Z</time>
      </trkpt>
      <trkpt lat="48.70033" lon="1.63856">
        <ele>175</ele>
        <time>2026-04-22T15:33:08Z</time>
      </trkpt>
      <trkpt lat="48.70032" lon="1.63999">
        <ele>177</ele>
        <time>2026-04-22T15:35:14Z</time>
      </trkpt>
      <trkpt lat="48.69978" lon="1.64014">
        <ele>176</ele>
        <time>2026-04-22T15:36:27Z</time>
      </trkpt>
      <trkpt lat="48.69891" lon="1.64054">
        <ele>172</ele>
        <time>2026-04-22T15:38:28Z</time>
      </trkpt>
      <trkpt lat="48.6987" lon="1.64068">
        <ele>170</ele>
        <time>2026-04-22T15:38:59Z</time>
      </trkpt>
      <trkpt lat="48.69813" lon="1.64105">
        <ele>166</ele>
        <time>2026-04-22T15:40:22Z</time>
      </trkpt>
      <trkpt lat="48.69778" lon="1.64156">
        <ele>165</ele>
        <time>2026-04-22T15:41:27Z</time>
      </trkpt>
      <trkpt lat="48.69694" lon="1.64219">
        <ele>163</ele>
        <time>2026-04-22T15:43:32Z</time>
      </trkpt>
      <trkpt lat="48.69691" lon="1.64219">
        <ele>163</ele>
        <time>2026-04-22T15:43:36Z</time>
      </trkpt>
      <trkpt lat="48.6967" lon="1.64222">
        <ele>162</ele>
        <time>2026-04-22T15:44:04Z</time>
      </trkpt>
      <trkpt lat="48.69692" lon="1.6423">
        <ele>164</ele>
        <time>2026-04-22T15:44:34Z</time>
      </trkpt>
      <trkpt lat="48.69762" lon="1.64334">
        <ele>174</ele>
        <time>2026-04-22T15:46:45Z</time>
      </trkpt>
      <trkpt lat="48.69859" lon="1.64442">
        <ele>174</ele>
        <time>2026-04-22T15:49:25Z</time>
      </trkpt>
      <trkpt lat="48.69834" lon="1.64433">
        <ele>174</ele>
        <time>2026-04-22T15:50:00Z</time>
      </trkpt>
      <trkpt lat="48.69796" lon="1.64433">
        <ele>173</ele>
        <time>2026-04-22T15:50:50Z</time>
      </trkpt>
      <trkpt lat="48.6976" lon="1.64448">
        <ele>173</ele>
        <time>2026-04-22T15:51:40Z</time>
      </trkpt>
      <trkpt lat="48.69725" lon="1.64486">
        <ele>172</ele>
        <time>2026-04-22T15:52:38Z</time>
      </trkpt>
      <trkpt lat="48.69688" lon="1.64548">
        <ele>173</ele>
        <time>2026-04-22T15:53:51Z</time>
      </trkpt>
      <trkpt lat="48.69648" lon="1.64667">
        <ele>174</ele>
        <time>2026-04-22T15:55:49Z</time>
      </trkpt>
      <trkpt lat="48.69602" lon="1.6483">
        <ele>174</ele>
        <time>2026-04-22T15:58:25Z</time>
      </trkpt>
      <trkpt lat="48.69532" lon="1.6512">
        <ele>165</ele>
        <time>2026-04-22T16:02:57Z</time>
      </trkpt>
      <trkpt lat="48.69529" lon="1.65159">
        <ele>164</ele>
        <time>2026-04-22T16:03:32Z</time>
      </trkpt>
      <trkpt lat="48.69534" lon="1.6519">
        <ele>163</ele>
        <time>2026-04-22T16:04:00Z</time>
      </trkpt>
      <trkpt lat="48.6955" lon="1.65468">
        <ele>155</ele>
        <time>2026-04-22T16:08:06Z</time>
      </trkpt>
      <trkpt lat="48.69544" lon="1.65616">
        <ele>149</ele>
        <time>2026-04-22T16:10:16Z</time>
      </trkpt>
      <trkpt lat="48.69552" lon="1.657">
        <ele>147</ele>
        <time>2026-04-22T16:11:31Z</time>
      </trkpt>
      <trkpt lat="48.69559" lon="1.65746">
        <ele>147</ele>
        <time>2026-04-22T16:12:13Z</time>
      </trkpt>
      <trkpt lat="48.69554" lon="1.65795">
        <ele>148</ele>
        <time>2026-04-22T16:12:56Z</time>
      </trkpt>
      <trkpt lat="48.69543" lon="1.65874">
        <ele>149</ele>
        <time>2026-04-22T16:14:07Z</time>
      </trkpt>
      <trkpt lat="48.69546" lon="1.6593">
        <ele>149</ele>
        <time>2026-04-22T16:14:57Z</time>
      </trkpt>
      <trkpt lat="48.69555" lon="1.66034">
        <ele>149</ele>
        <time>2026-04-22T16:16:29Z</time>
      </trkpt>
      <trkpt lat="48.69532" lon="1.66138">
        <ele>148</ele>
        <time>2026-04-22T16:18:06Z</time>
      </trkpt>
      <trkpt lat="48.69509" lon="1.66208">
        <ele>146</ele>
        <time>2026-04-22T16:19:15Z</time>
      </trkpt>
      <trkpt lat="48.69508" lon="1.66268">
        <ele>144</ele>
        <time>2026-04-22T16:20:08Z</time>
      </trkpt>
      <trkpt lat="48.69477" lon="1.66355">
        <ele>144</ele>
        <time>2026-04-22T16:21:35Z</time>
      </trkpt>
      <trkpt lat="48.69447" lon="1.66427">
        <ele>144</ele>
        <time>2026-04-22T16:22:50Z</time>
      </trkpt>
      <trkpt lat="48.69434" lon="1.66501">
        <ele>143</ele>
        <time>2026-04-22T16:23:57Z</time>
      </trkpt>
      <trkpt lat="48.69415" lon="1.6662">
        <ele>142</ele>
        <time>2026-04-22T16:25:45Z</time>
      </trkpt>
      <trkpt lat="48.69413" lon="1.66651">
        <ele>141</ele>
        <time>2026-04-22T16:26:12Z</time>
      </trkpt>
      <trkpt lat="48.69412" lon="1.66678">
        <ele>141</ele>
        <time>2026-04-22T16:26:36Z</time>
      </trkpt>
      <trkpt lat="48.69444" lon="1.66836">
        <ele>142</ele>
        <time>2026-04-22T16:29:02Z</time>
      </trkpt>
      <trkpt lat="48.69474" lon="1.66973">
        <ele>142</ele>
        <time>2026-04-22T16:31:09Z</time>
      </trkpt>
      <trkpt lat="48.69377" lon="1.67072">
        <ele>143</ele>
        <time>2026-04-22T16:33:45Z</time>
      </trkpt>
      <trkpt lat="48.69336" lon="1.67139">
        <ele>144</ele>
        <time>2026-04-22T16:35:06Z</time>
      </trkpt>
      <trkpt lat="48.69324" lon="1.67166">
        <ele>144</ele>
        <time>2026-04-22T16:35:34Z</time>
      </trkpt>
      <trkpt lat="48.69301" lon="1.67183">
        <ele>142</ele>
        <time>2026-04-22T16:36:08Z</time>
      </trkpt>
      <trkpt lat="48.69219" lon="1.67107">
        <ele>142</ele>
        <time>2026-04-22T16:38:17Z</time>
      </trkpt>
      <trkpt lat="48.69211" lon="1.67099">
        <ele>142</ele>
        <time>2026-04-22T16:38:29Z</time>
      </trkpt>
      <trkpt lat="48.6917" lon="1.67071">
        <ele>142</ele>
        <time>2026-04-22T16:39:29Z</time>
      </trkpt>
      <trkpt lat="48.69147" lon="1.67076">
        <ele>143</ele>
        <time>2026-04-22T16:40:00Z</time>
      </trkpt>
      <trkpt lat="48.69129" lon="1.67088">
        <ele>143</ele>
        <time>2026-04-22T16:40:27Z</time>
      </trkpt>
      <trkpt lat="48.69118" lon="1.67111">
        <ele>144</ele>
        <time>2026-04-22T16:40:52Z</time>
      </trkpt>
      <trkpt lat="48.69117" lon="1.67183">
        <ele>144</ele>
        <time>2026-04-22T16:41:55Z</time>
      </trkpt>
      <trkpt lat="48.69129" lon="1.67314">
        <ele>143</ele>
        <time>2026-04-22T16:43:52Z</time>
      </trkpt>
      <trkpt lat="48.69134" lon="1.67405">
        <ele>142</ele>
        <time>2026-04-22T16:45:12Z</time>
      </trkpt>
      <trkpt lat="48.69146" lon="1.67496">
        <ele>140</ele>
        <time>2026-04-22T16:46:34Z</time>
      </trkpt>
      <trkpt lat="48.69164" lon="1.67584">
        <ele>141</ele>
        <time>2026-04-22T16:47:55Z</time>
      </trkpt>
      <trkpt lat="48.69231" lon="1.67711">
        <ele>144</ele>
        <time>2026-04-22T16:50:18Z</time>
      </trkpt>
      <trkpt lat="48.69252" lon="1.67769">
        <ele>145</ele>
        <time>2026-04-22T16:51:16Z</time>
      </trkpt>
      <trkpt lat="48.69282" lon="1.67901">
        <ele>142</ele>
        <time>2026-04-22T16:53:19Z</time>
      </trkpt>
      <trkpt lat="48.69285" lon="1.67964">
        <ele>141</ele>
        <time>2026-04-22T16:54:15Z</time>
      </trkpt>
      <trkpt lat="48.69283" lon="1.68007">
        <ele>141</ele>
        <time>2026-04-22T16:54:53Z</time>
      </trkpt>
      <trkpt lat="48.69271" lon="1.68098">
        <ele>143</ele>
        <time>2026-04-22T16:56:15Z</time>
      </trkpt>
      <trkpt lat="48.69248" lon="1.68189">
        <ele>142</ele>
        <time>2026-04-22T16:57:41Z</time>
      </trkpt>
      <trkpt lat="48.69236" lon="1.68268">
        <ele>143</ele>
        <time>2026-04-22T16:58:52Z</time>
      </trkpt>
      <trkpt lat="48.69238" lon="1.68325">
        <ele>142</ele>
        <time>2026-04-22T16:59:42Z</time>
      </trkpt>
      <trkpt lat="48.69256" lon="1.6842">
        <ele>142</ele>
        <time>2026-04-22T17:01:09Z</time>
      </trkpt>
      <trkpt lat="48.69253" lon="1.68468">
        <ele>143</ele>
        <time>2026-04-22T17:01:52Z</time>
      </trkpt>
      <trkpt lat="48.69239" lon="1.68558">
        <ele>144</ele>
        <time>2026-04-22T17:03:13Z</time>
      </trkpt>
      <trkpt lat="48.6919" lon="1.68665">
        <ele>143</ele>
        <time>2026-04-22T17:05:08Z</time>
      </trkpt>
      <trkpt lat="48.69136" lon="1.68758">
        <ele>144</ele>
        <time>2026-04-22T17:06:57Z</time>
      </trkpt>
      <trkpt lat="48.69114" lon="1.68834">
        <ele>143</ele>
        <time>2026-04-22T17:08:10Z</time>
      </trkpt>
      <trkpt lat="48.69082" lon="1.6886">
        <ele>143</ele>
        <time>2026-04-22T17:08:59Z</time>
      </trkpt>
      <trkpt lat="48.69036" lon="1.68975">
        <ele>143</ele>
        <time>2026-04-22T17:10:57Z</time>
      </trkpt>
      <trkpt lat="48.6898" lon="1.69022">
        <ele>147</ele>
        <time>2026-04-22T17:12:23Z</time>
      </trkpt>
      <trkpt lat="48.68891" lon="1.69139">
        <ele>151</ele>
        <time>2026-04-22T17:15:00Z</time>
      </trkpt>
      <trkpt lat="48.68699" lon="1.69526">
        <ele>153</ele>
        <time>2026-04-22T17:22:06Z</time>
      </trkpt>
      <trkpt lat="48.68666" lon="1.69608">
        <ele>151</ele>
        <time>2026-04-22T17:23:31Z</time>
      </trkpt>
      <trkpt lat="48.68675" lon="1.69807">
        <ele>159</ele>
        <time>2026-04-22T17:26:27Z</time>
      </trkpt>
      <trkpt lat="48.68679" lon="1.69865">
        <ele>161</ele>
        <time>2026-04-22T17:27:18Z</time>
      </trkpt>
      <trkpt lat="48.68682" lon="1.69868">
        <ele>161</ele>
        <time>2026-04-22T17:27:23Z</time>
      </trkpt>
      <trkpt lat="48.68719" lon="1.69906">
        <ele>165</ele>
        <time>2026-04-22T17:28:22Z</time>
      </trkpt>
      <trkpt lat="48.68736" lon="1.69937">
        <ele>166</ele>
        <time>2026-04-22T17:28:58Z</time>
      </trkpt>
      <trkpt lat="48.68724" lon="1.70094">
        <ele>169</ele>
        <time>2026-04-22T17:31:17Z</time>
      </trkpt>
      <trkpt lat="48.68704" lon="1.70362">
        <ele>175</ele>
        <time>2026-04-22T17:35:15Z</time>
      </trkpt>
      <trkpt lat="48.68699" lon="1.70384">
        <ele>175</ele>
        <time>2026-04-22T17:35:35Z</time>
      </trkpt>
      <trkpt lat="48.68688" lon="1.70432">
        <ele>175</ele>
        <time>2026-04-22T17:36:20Z</time>
      </trkpt>
      <trkpt lat="48.69156" lon="1.70622">
        <ele>176</ele>
        <time>2026-04-22T17:47:07Z</time>
      </trkpt>
      <trkpt lat="48.69404" lon="1.70714">
        <ele>173</ele>
        <time>2026-04-22T17:52:47Z</time>
      </trkpt>
      <trkpt lat="48.69675" lon="1.70813">
        <ele>171</ele>
        <time>2026-04-22T17:58:59Z</time>
      </trkpt>
      <trkpt lat="48.70034" lon="1.70961">
        <ele>177</ele>
        <time>2026-04-22T18:07:16Z</time>
      </trkpt>
      <trkpt lat="48.70083" lon="1.70982">
        <ele>176</ele>
        <time>2026-04-22T18:08:24Z</time>
      </trkpt>
      <trkpt lat="48.70228" lon="1.7107">
        <ele>182</ele>
        <time>2026-04-22T18:11:52Z</time>
      </trkpt>
      <trkpt lat="48.70482" lon="1.71163">
        <ele>185</ele>
        <time>2026-04-22T18:17:41Z</time>
      </trkpt>
      <trkpt lat="48.70483" lon="1.71171">
        <ele>185</ele>
        <time>2026-04-22T18:17:48Z</time>
      </trkpt>
      <trkpt lat="48.70486" lon="1.71177">
        <ele>185</ele>
        <time>2026-04-22T18:17:55Z</time>
      </trkpt>
      <trkpt lat="48.7049" lon="1.71182">
        <ele>185</ele>
        <time>2026-04-22T18:18:02Z</time>
      </trkpt>
      <trkpt lat="48.70495" lon="1.71184">
        <ele>185</ele>
        <time>2026-04-22T18:18:09Z</time>
      </trkpt>
      <trkpt lat="48.705" lon="1.71183">
        <ele>185</ele>
        <time>2026-04-22T18:18:15Z</time>
      </trkpt>
      <trkpt lat="48.70504" lon="1.71179">
        <ele>185</ele>
        <time>2026-04-22T18:18:22Z</time>
      </trkpt>
      <trkpt lat="48.70507" lon="1.71173">
        <ele>185</ele>
        <time>2026-04-22T18:18:28Z</time>
      </trkpt>
      <trkpt lat="48.70508" lon="1.71166">
        <ele>185</ele>
        <time>2026-04-22T18:18:35Z</time>
      </trkpt>
      <trkpt lat="48.70508" lon="1.71159">
        <ele>185</ele>
        <time>2026-04-22T18:18:41Z</time>
      </trkpt>
      <trkpt lat="48.70506" lon="1.71152">
        <ele>185</ele>
        <time>2026-04-22T18:18:48Z</time>
      </trkpt>
      <trkpt lat="48.70765" lon="1.70896">
        <ele>185</ele>
        <time>2026-04-22T18:25:40Z</time>
      </trkpt>
      <trkpt lat="48.7084" lon="1.70771">
        <ele>183</ele>
        <time>2026-04-22T18:28:09Z</time>
      </trkpt>
      <trkpt lat="48.70888" lon="1.70756">
        <ele>179</ele>
        <time>2026-04-22T18:29:14Z</time>
      </trkpt>
      <trkpt lat="48.7097" lon="1.70649">
        <ele>165</ele>
        <time>2026-04-22T18:31:39Z</time>
      </trkpt>
      <trkpt lat="48.71037" lon="1.70628">
        <ele>159</ele>
        <time>2026-04-22T18:33:10Z</time>
      </trkpt>
      <trkpt lat="48.71086" lon="1.70619">
        <ele>156</ele>
        <time>2026-04-22T18:34:16Z</time>
      </trkpt>
      <trkpt lat="48.71124" lon="1.70557">
        <ele>153</ele>
        <time>2026-04-22T18:35:30Z</time>
      </trkpt>
      <trkpt lat="48.71173" lon="1.70433">
        <ele>146</ele>
        <time>2026-04-22T18:37:38Z</time>
      </trkpt>
      <trkpt lat="48.71161" lon="1.7039">
        <ele>145</ele>
        <time>2026-04-22T18:38:19Z</time>
      </trkpt>
      <trkpt lat="48.71175" lon="1.70271">
        <ele>146</ele>
        <time>2026-04-22T18:40:05Z</time>
      </trkpt>
      <trkpt lat="48.71191" lon="1.70209">
        <ele>145</ele>
        <time>2026-04-22T18:41:04Z</time>
      </trkpt>
      <trkpt lat="48.71235" lon="1.69973">
        <ele>146</ele>
        <time>2026-04-22T18:44:40Z</time>
      </trkpt>
      <trkpt lat="48.71234" lon="1.69916">
        <ele>147</ele>
        <time>2026-04-22T18:45:30Z</time>
      </trkpt>
      <trkpt lat="48.71244" lon="1.69834">
        <ele>147</ele>
        <time>2026-04-22T18:46:43Z</time>
      </trkpt>
      <trkpt lat="48.71266" lon="1.69671">
        <ele>150</ele>
        <time>2026-04-22T18:49:10Z</time>
      </trkpt>
      <trkpt lat="48.71276" lon="1.69594">
        <ele>152</ele>
        <time>2026-04-22T18:50:19Z</time>
      </trkpt>
      <trkpt lat="48.71298" lon="1.69592">
        <ele>151</ele>
        <time>2026-04-22T18:50:48Z</time>
      </trkpt>
      <trkpt lat="48.71658" lon="1.69561">
        <ele>133</ele>
        <time>2026-04-22T18:58:50Z</time>
      </trkpt>
      <trkpt lat="48.71658" lon="1.69561">
        <ele>133</ele>
        <time>2026-04-22T18:58:50Z</time>
      </trkpt>
      <trkpt lat="48.71543" lon="1.69476">
        <ele>137</ele>
        <time>2026-04-22T19:01:40Z</time>
      </trkpt>
      <trkpt lat="48.71318" lon="1.69313">
        <ele>139</ele>
        <time>2026-04-22T19:07:13Z</time>
      </trkpt>
      <trkpt lat="48.71349" lon="1.69117">
        <ele>139</ele>
        <time>2026-04-22T19:10:11Z</time>
      </trkpt>
      <trkpt lat="48.7136" lon="1.69084">
        <ele>140</ele>
        <time>2026-04-22T19:10:43Z</time>
      </trkpt>
      <trkpt lat="48.71427" lon="1.68943">
        <ele>138</ele>
        <time>2026-04-22T19:13:16Z</time>
      </trkpt>
      <trkpt lat="48.71434" lon="1.68926">
        <ele>138</ele>
        <time>2026-04-22T19:13:34Z</time>
      </trkpt>
      <trkpt lat="48.7146" lon="1.68872">
        <ele>136</ele>
        <time>2026-04-22T19:14:33Z</time>
      </trkpt>
      <trkpt lat="48.71475" lon="1.68835">
        <ele>136</ele>
        <time>2026-04-22T19:15:11Z</time>
      </trkpt>
      <trkpt lat="48.71482" lon="1.68813">
        <ele>136</ele>
        <time>2026-04-22T19:15:32Z</time>
      </trkpt>
      <trkpt lat="48.7149" lon="1.6878">
        <ele>137</ele>
        <time>2026-04-22T19:16:03Z</time>
      </trkpt>
      <trkpt lat="48.71687" lon="1.68985">
        <ele>125</ele>
        <time>2026-04-22T19:21:22Z</time>
      </trkpt>
      <trkpt lat="48.7181" lon="1.6872">
        <ele>126</ele>
        <time>2026-04-22T19:26:08Z</time>
      </trkpt>
      <trkpt lat="48.71957" lon="1.68385">
        <ele>123</ele>
        <time>2026-04-22T19:32:02Z</time>
      </trkpt>
      <trkpt lat="48.72015" lon="1.6839">
        <ele>123</ele>
        <time>2026-04-22T19:33:19Z</time>
      </trkpt>
      <trkpt lat="48.72075" lon="1.68009">
        <ele>119</ele>
        <time>2026-04-22T19:39:04Z</time>
      </trkpt>
      <trkpt lat="48.72133" lon="1.67924">
        <ele>121</ele>
        <time>2026-04-22T19:40:52Z</time>
      </trkpt>
      <trkpt lat="48.72143" lon="1.67883">
        <ele>122</ele>
        <time>2026-04-22T19:41:30Z</time>
      </trkpt>
      <trkpt lat="48.7219" lon="1.67729">
        <ele>122</ele>
        <time>2026-04-22T19:44:00Z</time>
      </trkpt>
      <trkpt lat="48.7228" lon="1.67789">
        <ele>121</ele>
        <time>2026-04-22T19:46:11Z</time>
      </trkpt>
      <trkpt lat="48.72286" lon="1.6779">
        <ele>121</ele>
        <time>2026-04-22T19:46:19Z</time>
      </trkpt>
      <trkpt lat="48.72327" lon="1.67758">
        <ele>121</ele>
        <time>2026-04-22T19:47:20Z</time>
      </trkpt>
      <trkpt lat="48.72396" lon="1.67721">
        <ele>117</ele>
        <time>2026-04-22T19:48:58Z</time>
      </trkpt>
      <trkpt lat="48.72493" lon="1.67744">
        <ele>114</ele>
        <time>2026-04-22T19:51:09Z</time>
      </trkpt>
      <trkpt lat="48.72499" lon="1.67735">
        <ele>114</ele>
        <time>2026-04-22T19:51:20Z</time>
      </trkpt>
      <trkpt lat="48.72503" lon="1.67708">
        <ele>113</ele>
        <time>2026-04-22T19:51:45Z</time>
      </trkpt>
      <trkpt lat="48.72509" lon="1.6767">
        <ele>113</ele>
        <time>2026-04-22T19:52:19Z</time>
      </trkpt>
      <trkpt lat="48.72519" lon="1.67646">
        <ele>113</ele>
        <time>2026-04-22T19:52:44Z</time>
      </trkpt>
      <trkpt lat="48.72554" lon="1.67613">
        <ele>113</ele>
        <time>2026-04-22T19:53:39Z</time>
      </trkpt>
      <trkpt lat="48.72576" lon="1.67583">
        <ele>114</ele>
        <time>2026-04-22T19:54:19Z</time>
      </trkpt>
      <trkpt lat="48.72585" lon="1.67502">
        <ele>115</ele>
        <time>2026-04-22T19:55:31Z</time>
      </trkpt>
      <trkpt lat="48.72598" lon="1.67383">
        <ele>117</ele>
        <time>2026-04-22T19:57:17Z</time>
      </trkpt>
      <trkpt lat="48.72605" lon="1.67341">
        <ele>117</ele>
        <time>2026-04-22T19:57:55Z</time>
      </trkpt>
      <trkpt lat="48.72605" lon="1.67336">
        <ele>117</ele>
        <time>2026-04-22T19:58:00Z</time>
      </trkpt>
      <trkpt lat="48.726" lon="1.67304">
        <ele>117</ele>
        <time>2026-04-22T19:58:29Z</time>
      </trkpt>
      <trkpt lat="48.72586" lon="1.67233">
        <ele>117</ele>
        <time>2026-04-22T19:59:34Z</time>
      </trkpt>
      <trkpt lat="48.7254" lon="1.67066">
        <ele>119</ele>
        <time>2026-04-22T20:02:13Z</time>
      </trkpt>
      <trkpt lat="48.72526" lon="1.67004">
        <ele>120</ele>
        <time>2026-04-22T20:03:11Z</time>
      </trkpt>
      <trkpt lat="48.72518" lon="1.66944">
        <ele>119</ele>
        <time>2026-04-22T20:04:05Z</time>
      </trkpt>
      <trkpt lat="48.72513" lon="1.66904">
        <ele>119</ele>
        <time>2026-04-22T20:04:41Z</time>
      </trkpt>
      <trkpt lat="48.72499" lon="1.66834">
        <ele>119</ele>
        <time>2026-04-22T20:05:45Z</time>
      </trkpt>
      <trkpt lat="48.72461" lon="1.66743">
        <ele>118</ele>
        <time>2026-04-22T20:07:20Z</time>
      </trkpt>
      <trkpt lat="48.72399" lon="1.66606">
        <ele>118</ele>
        <time>2026-04-22T20:09:46Z</time>
      </trkpt>
      <trkpt lat="48.72392" lon="1.66591">
        <ele>118</ele>
        <time>2026-04-22T20:10:02Z</time>
      </trkpt>
      <trkpt lat="48.72253" lon="1.66355">
        <ele>118</ele>
        <time>2026-04-22T20:14:41Z</time>
      </trkpt>
      <trkpt lat="48.72229" lon="1.66304">
        <ele>119</ele>
        <time>2026-04-22T20:15:36Z</time>
      </trkpt>
      <trkpt lat="48.7221" lon="1.66239">
        <ele>120</ele>
        <time>2026-04-22T20:16:38Z</time>
      </trkpt>
      <trkpt lat="48.72214" lon="1.66196">
        <ele>121</ele>
        <time>2026-04-22T20:17:17Z</time>
      </trkpt>
      <trkpt lat="48.72257" lon="1.66051">
        <ele>122</ele>
        <time>2026-04-22T20:19:37Z</time>
      </trkpt>
      <trkpt lat="48.72265" lon="1.66013">
        <ele>122</ele>
        <time>2026-04-22T20:20:12Z</time>
      </trkpt>
      <trkpt lat="48.72272" lon="1.65954">
        <ele>123</ele>
        <time>2026-04-22T20:21:05Z</time>
      </trkpt>
      <trkpt lat="48.72279" lon="1.65889">
        <ele>124</ele>
        <time>2026-04-22T20:22:03Z</time>
      </trkpt>
      <trkpt lat="48.72279" lon="1.65873">
        <ele>124</ele>
        <time>2026-04-22T20:22:17Z</time>
      </trkpt>
      <trkpt lat="48.72278" lon="1.6586">
        <ele>124</ele>
        <time>2026-04-22T20:22:28Z</time>
      </trkpt>
      <trkpt lat="48.72276" lon="1.65836">
        <ele>125</ele>
        <time>2026-04-22T20:22:49Z</time>
      </trkpt>
      <trkpt lat="48.72251" lon="1.65681">
        <ele>128</ele>
        <time>2026-04-22T20:25:10Z</time>
      </trkpt>
      <trkpt lat="48.72234" lon="1.65559">
        <ele>129</ele>
        <time>2026-04-22T20:27:00Z</time>
      </trkpt>
      <trkpt lat="48.72226" lon="1.65507">
        <ele>130</ele>
        <time>2026-04-22T20:27:47Z</time>
      </trkpt>
      <trkpt lat="48.72224" lon="1.65492">
        <ele>131</ele>
        <time>2026-04-22T20:28:00Z</time>
      </trkpt>
      <trkpt lat="48.72222" lon="1.6548">
        <ele>131</ele>
        <time>2026-04-22T20:28:11Z</time>
      </trkpt>
    </trkseg>
  </trk>
</gpx>